AEA3728 LEPA-EDLP
Flight info
| Callsign | AEA3728 |
|---|---|
| Flight time | 2h 5m |
| Altitude | 38000 |
| Route | MEROS DCT LAPIT DCT CHELY DCT LUMAS DCT MAXIR DCT LUSOL DCT BODRU DCT OKTET DCT IRMAR DCT KINES DCT VANAS DCT MOBLO DCT UBIMA DCT SOSAL DCT KORED DCT BERSU DCT DITON/N0454F370 DCT LOKTA DCT TEDGO DCT HAREM DCT LOHRE/N0452F380 Z99 FUL T850 IDEWE T842 PELUN PELUN3H |
| Aircraft | B738/M-SDE2E3FGHIRWXY/LB1 |
Departure
| Time | 2026-05-04 14:03 |
|---|---|
| Airport | Palma de Mallorca Airport (LEPA) |
Arrival
| Time | 2026-05-04 16:08 |
|---|---|
| Airport | Paderborn Lippstadt Airport (EDLP) |
| Time | Latitude | Longitude | Altitude | Speed | Heading |
|---|---|---|---|---|---|
| 2026-05-04 13:41 | 39.55020 | 2.73493 | 35 ft | 0 kts | 165° |
| 2026-05-04 13:51 | 39.55022 | 2.73493 | 35 ft | 2 kts | 165° |
| 2026-05-04 13:51 | 39.55044 | 2.73481 | 33 ft | 4 kts | 140° |
| 2026-05-04 13:52 | 39.55054 | 2.73442 | 32 ft | 1 kts | 58° |
| 2026-05-04 13:54 | 39.55069 | 2.73474 | 33 ft | 8 kts | 58° |
| 2026-05-04 13:55 | 39.55107 | 2.73552 | 34 ft | 11 kts | 58° |
| 2026-05-04 13:55 | 39.55153 | 2.73645 | 35 ft | 0 kts | 56° |
| 2026-05-04 13:56 | 39.55170 | 2.73757 | 35 ft | 10 kts | 104° |
| 2026-05-04 13:57 | 39.55207 | 2.73819 | 35 ft | 11 kts | 354° |
| 2026-05-04 13:57 | 39.55277 | 2.73770 | 35 ft | 13 kts | 328° |
| 2026-05-04 13:58 | 39.55584 | 2.73525 | 27 ft | 19 kts | 330° |
| 2026-05-04 13:58 | 39.55737 | 2.73674 | 25 ft | 16 kts | 58° |
| 2026-05-04 13:58 | 39.55793 | 2.73792 | 25 ft | 15 kts | 59° |
| 2026-05-04 13:59 | 39.55839 | 2.73891 | 27 ft | 10 kts | 59° |
| 2026-05-04 13:59 | 39.55876 | 2.73907 | 23 ft | 6 kts | 341° |
| 2026-05-04 13:59 | 39.55913 | 2.73879 | 23 ft | 0 kts | 328° |
| 2026-05-04 14:00 | 39.56001 | 2.73803 | 21 ft | 8 kts | 300° |
| 2026-05-04 14:00 | 39.55983 | 2.73742 | 24 ft | 0 kts | 237° |
| 2026-05-04 14:02 | 39.55886 | 2.73536 | 22 ft | 68 kts | 238° |
| 2026-05-04 14:03 | 39.55484 | 2.72694 | 42 ft | 145 kts | 237° |
| 2026-05-04 14:03 | 39.54901 | 2.71473 | 677 ft | 173 kts | 237° |
| 2026-05-04 14:03 | 39.54221 | 2.70069 | 1640 ft | 189 kts | 237° |
| 2026-05-04 14:03 | 39.53522 | 2.68640 | 2516 ft | 193 kts | 237° |
| 2026-05-04 14:04 | 39.52036 | 2.65615 | 3840 ft | 204 kts | 237° |
| 2026-05-04 14:04 | 39.51259 | 2.64037 | 4643 ft | 207 kts | 236° |
| 2026-05-04 14:04 | 39.50494 | 2.62483 | 5548 ft | 207 kts | 236° |
| 2026-05-04 14:05 | 39.48188 | 2.59903 | 6490 ft | 249 kts | 210° |
| 2026-05-04 14:05 | 39.46642 | 2.58784 | 7228 ft | 256 kts | 210° |
| 2026-05-04 14:05 | 39.45087 | 2.57650 | 8098 ft | 259 kts | 211° |
| 2026-05-04 14:06 | 39.43467 | 2.56575 | 8997 ft | 265 kts | 200° |
| 2026-05-04 14:06 | 39.41623 | 2.56364 | 9853 ft | 275 kts | 175° |
| 2026-05-04 14:06 | 39.39765 | 2.57220 | 10466 ft | 297 kts | 153° |
| 2026-05-04 14:06 | 39.38221 | 2.59228 | 10644 ft | 336 kts | 123° |
| 2026-05-04 14:07 | 39.37122 | 2.62013 | 10897 ft | 356 kts | 128° |
| 2026-05-04 14:07 | 39.35405 | 2.64281 | 11482 ft | 357 kts | 145° |
| 2026-05-04 14:07 | 39.33478 | 2.66350 | 12234 ft | 362 kts | 143° |
| 2026-05-04 14:07 | 39.31612 | 2.68530 | 12979 ft | 367 kts | 141° |
| 2026-05-04 14:08 | 39.29733 | 2.70827 | 13711 ft | 373 kts | 140° |
| 2026-05-04 14:08 | 39.27904 | 2.73216 | 14342 ft | 382 kts | 132° |
| 2026-05-04 14:08 | 39.26597 | 2.76290 | 14982 ft | 395 kts | 113° |
| 2026-05-04 14:08 | 39.26048 | 2.79779 | 15593 ft | 406 kts | 94° |
| 2026-05-04 14:09 | 39.26067 | 2.87166 | 16791 ft | 420 kts | 85° |
| 2026-05-04 14:09 | 39.26844 | 2.90854 | 17345 ft | 428 kts | 64° |
| 2026-05-04 14:10 | 39.29839 | 2.97537 | 18545 ft | 436 kts | 57° |
| 2026-05-04 14:10 | 39.31425 | 3.00888 | 19039 ft | 442 kts | 57° |
| 2026-05-04 14:10 | 39.33015 | 3.04281 | 19573 ft | 446 kts | 58° |
| 2026-05-04 14:10 | 39.34629 | 3.07775 | 20105 ft | 451 kts | 58° |
| 2026-05-04 14:11 | 39.36218 | 3.11258 | 20611 ft | 456 kts | 59° |
| 2026-05-04 14:11 | 39.39449 | 3.18399 | 21595 ft | 465 kts | 59° |
| 2026-05-04 14:11 | 39.41104 | 3.22061 | 22082 ft | 470 kts | 59° |
| 2026-05-04 14:12 | 39.42766 | 3.25739 | 22571 ft | 474 kts | 59° |
| 2026-05-04 14:12 | 39.44437 | 3.29407 | 23020 ft | 479 kts | 59° |
| 2026-05-04 14:12 | 39.47881 | 3.36874 | 23856 ft | 487 kts | 59° |
| 2026-05-04 14:13 | 39.49611 | 3.40620 | 24279 ft | 489 kts | 59° |
| 2026-05-04 14:13 | 39.51368 | 3.44433 | 24711 ft | 492 kts | 59° |
| 2026-05-04 14:13 | 39.53107 | 3.48217 | 25108 ft | 495 kts | 59° |
| 2026-05-04 14:13 | 39.54879 | 3.52082 | 25490 ft | 498 kts | 59° |
| 2026-05-04 14:14 | 39.56639 | 3.55928 | 25863 ft | 501 kts | 59° |
| 2026-05-04 14:14 | 39.60200 | 3.63728 | 26588 ft | 507 kts | 60° |
| 2026-05-04 14:14 | 39.62007 | 3.67695 | 26942 ft | 510 kts | 60° |
| 2026-05-04 14:15 | 39.65621 | 3.75639 | 27622 ft | 515 kts | 60° |
| 2026-05-04 14:15 | 39.69298 | 3.83742 | 28280 ft | 521 kts | 60° |
| 2026-05-04 14:16 | 39.72978 | 3.91874 | 28906 ft | 526 kts | 60° |
| 2026-05-04 14:16 | 39.74825 | 3.95964 | 29227 ft | 529 kts | 60° |
| 2026-05-04 14:17 | 39.78562 | 4.04255 | 29813 ft | 534 kts | 60° |
| 2026-05-04 14:17 | 39.80434 | 4.08416 | 30092 ft | 536 kts | 60° |
| 2026-05-04 14:17 | 39.84362 | 4.16681 | 30560 ft | 540 kts | 49° |
| 2026-05-04 14:18 | 39.87139 | 4.19995 | 30829 ft | 536 kts | 32° |
| 2026-05-04 14:18 | 39.93814 | 4.23687 | 31602 ft | 515 kts | 5° |
| 2026-05-04 14:19 | 40.00881 | 4.25251 | 32194 ft | 514 kts | 3° |
| 2026-05-04 14:19 | 40.04391 | 4.25980 | 32475 ft | 514 kts | 3° |
| 2026-05-04 14:19 | 40.07939 | 4.26747 | 32827 ft | 513 kts | 4° |
| 2026-05-04 14:19 | 40.11441 | 4.27537 | 33192 ft | 512 kts | 4° |
| 2026-05-04 14:20 | 40.14934 | 4.28351 | 33524 ft | 512 kts | 4° |
| 2026-05-04 14:20 | 40.18455 | 4.29185 | 33844 ft | 511 kts | 4° |
| 2026-05-04 14:20 | 40.21933 | 4.30015 | 34145 ft | 510 kts | 4° |
| 2026-05-04 14:21 | 40.28895 | 4.31675 | 34772 ft | 507 kts | 4° |
| 2026-05-04 14:21 | 40.32334 | 4.32494 | 35062 ft | 506 kts | 4° |
| 2026-05-04 14:21 | 40.35829 | 4.33324 | 35344 ft | 505 kts | 4° |
| 2026-05-04 14:21 | 40.39262 | 4.34140 | 35610 ft | 504 kts | 4° |
| 2026-05-04 14:22 | 40.42686 | 4.34955 | 35878 ft | 503 kts | 4° |
| 2026-05-04 14:22 | 40.46150 | 4.35781 | 36149 ft | 502 kts | 4° |
| 2026-05-04 14:22 | 40.49554 | 4.36593 | 36408 ft | 501 kts | 4° |
| 2026-05-04 14:22 | 40.53021 | 4.37418 | 36667 ft | 500 kts | 4° |
| 2026-05-04 14:23 | 40.59861 | 4.39039 | 37160 ft | 499 kts | 4° |
| 2026-05-04 14:23 | 40.63251 | 4.39842 | 37396 ft | 498 kts | 4° |
| 2026-05-04 14:23 | 40.66680 | 4.40655 | 37633 ft | 498 kts | 4° |
| 2026-05-04 14:24 | 40.70075 | 4.41463 | 37867 ft | 497 kts | 4° |
| 2026-05-04 14:24 | 40.73485 | 4.42275 | 38092 ft | 496 kts | 4° |
| 2026-05-04 14:24 | 40.76854 | 4.43078 | 38312 ft | 496 kts | 4° |
| 2026-05-04 14:24 | 40.80266 | 4.43892 | 38525 ft | 495 kts | 4° |
| 2026-05-04 14:25 | 40.83638 | 4.44698 | 38721 ft | 494 kts | 4° |
| 2026-05-04 14:25 | 40.90418 | 4.46320 | 39098 ft | 493 kts | 4° |
| 2026-05-04 14:25 | 40.93761 | 4.47132 | 39269 ft | 492 kts | 5° |
| 2026-05-04 14:26 | 40.97159 | 4.47964 | 39424 ft | 492 kts | 5° |
| 2026-05-04 14:26 | 41.00495 | 4.48783 | 39562 ft | 491 kts | 5° |
| 2026-05-04 14:26 | 41.03877 | 4.49612 | 39703 ft | 491 kts | 5° |
| 2026-05-04 14:26 | 41.07203 | 4.50427 | 39847 ft | 490 kts | 5° |
| 2026-05-04 14:27 | 41.13930 | 4.52069 | 39941 ft | 492 kts | 5° |
| 2026-05-04 14:27 | 41.20689 | 4.53717 | 39956 ft | 495 kts | 5° |
| 2026-05-04 14:28 | 41.27462 | 4.55375 | 39953 ft | 497 kts | 5° |
| 2026-05-04 14:28 | 41.34277 | 4.57048 | 39947 ft | 499 kts | 5° |
| 2026-05-04 14:29 | 41.47933 | 4.60413 | 39945 ft | 500 kts | 5° |
| 2026-05-04 14:30 | 41.54768 | 4.62102 | 39942 ft | 499 kts | 5° |
| 2026-05-04 14:31 | 41.64978 | 4.64632 | 39943 ft | 498 kts | 5° |
| 2026-05-04 14:32 | 41.78190 | 4.70329 | 39953 ft | 510 kts | 27° |
| 2026-05-04 14:32 | 41.84232 | 4.75274 | 39943 ft | 511 kts | 28° |
| 2026-05-04 14:33 | 41.90262 | 4.80275 | 39947 ft | 510 kts | 28° |
| 2026-05-04 14:33 | 41.96333 | 4.85228 | 39952 ft | 509 kts | 27° |
| 2026-05-04 14:34 | 42.02378 | 4.90117 | 39950 ft | 509 kts | 27° |
| 2026-05-04 14:34 | 42.08440 | 4.95018 | 39960 ft | 508 kts | 27° |
| 2026-05-04 14:35 | 42.14508 | 4.99941 | 39950 ft | 510 kts | 27° |
| 2026-05-04 14:35 | 42.20591 | 5.04891 | 39970 ft | 509 kts | 27° |
| 2026-05-04 14:36 | 42.26644 | 5.09830 | 39960 ft | 509 kts | 27° |
| 2026-05-04 14:36 | 42.32691 | 5.14775 | 39970 ft | 509 kts | 27° |
| 2026-05-04 14:37 | 42.38745 | 5.19736 | 39962 ft | 509 kts | 27° |
| 2026-05-04 14:37 | 42.43812 | 5.23896 | 39974 ft | 510 kts | 27° |
| 2026-05-04 14:38 | 42.49857 | 5.28870 | 39984 ft | 512 kts | 27° |
| 2026-05-04 14:38 | 42.55941 | 5.33888 | 39982 ft | 513 kts | 27° |
| 2026-05-04 14:39 | 42.62062 | 5.38948 | 39984 ft | 515 kts | 28° |
| 2026-05-04 14:39 | 42.68167 | 5.44008 | 40002 ft | 516 kts | 27° |
| 2026-05-04 14:40 | 42.77385 | 5.51669 | 39974 ft | 516 kts | 28° |
| 2026-05-04 14:40 | 42.83480 | 5.56752 | 39989 ft | 514 kts | 28° |
| 2026-05-04 14:41 | 42.89574 | 5.61842 | 39995 ft | 513 kts | 28° |
| 2026-05-04 14:42 | 43.01757 | 5.72056 | 39994 ft | 514 kts | 28° |
| 2026-05-04 14:42 | 43.07856 | 5.77188 | 40010 ft | 513 kts | 28° |
| 2026-05-04 14:43 | 43.13928 | 5.82310 | 40017 ft | 513 kts | 28° |
| 2026-05-04 14:43 | 43.20006 | 5.87448 | 40021 ft | 513 kts | 28° |
| 2026-05-04 14:44 | 43.26083 | 5.92598 | 40025 ft | 514 kts | 28° |
| 2026-05-04 14:44 | 43.32147 | 5.97750 | 40027 ft | 514 kts | 28° |
| 2026-05-04 14:45 | 43.38375 | 6.02457 | 40033 ft | 508 kts | 16° |
| 2026-05-04 14:45 | 43.45103 | 6.04833 | 40028 ft | 495 kts | 359° |
| 2026-05-04 14:46 | 43.51969 | 6.05445 | 40041 ft | 491 kts | 357° |
| 2026-05-04 14:46 | 43.58764 | 6.05996 | 40037 ft | 492 kts | 358° |
| 2026-05-04 14:47 | 43.65619 | 6.06656 | 40037 ft | 492 kts | 358° |
| 2026-05-04 14:47 | 43.72457 | 6.07340 | 40034 ft | 492 kts | 358° |
| 2026-05-04 14:48 | 43.79223 | 6.09204 | 40041 ft | 503 kts | 16° |
| 2026-05-04 14:48 | 43.85589 | 6.13327 | 40043 ft | 507 kts | 23° |
| 2026-05-04 14:49 | 43.91871 | 6.17793 | 40043 ft | 507 kts | 23° |
| 2026-05-04 14:49 | 43.98165 | 6.22176 | 40045 ft | 507 kts | 22° |
| 2026-05-04 14:50 | 44.04490 | 6.26510 | 40056 ft | 507 kts | 22° |
| 2026-05-04 14:50 | 44.10815 | 6.30846 | 40055 ft | 507 kts | 22° |
| 2026-05-04 14:51 | 44.17115 | 6.35185 | 40050 ft | 507 kts | 22° |
| 2026-05-04 14:51 | 44.23441 | 6.39554 | 40059 ft | 506 kts | 22° |
| 2026-05-04 14:52 | 44.29750 | 6.43930 | 40072 ft | 506 kts | 23° |
| 2026-05-04 14:52 | 44.36009 | 6.48283 | 40065 ft | 505 kts | 23° |
| 2026-05-04 14:53 | 44.42291 | 6.52661 | 40076 ft | 504 kts | 23° |
| 2026-05-04 14:53 | 44.48578 | 6.57051 | 40091 ft | 504 kts | 23° |
| 2026-05-04 14:54 | 44.54854 | 6.61421 | 40088 ft | 504 kts | 23° |
| 2026-05-04 14:54 | 44.61110 | 6.65774 | 40098 ft | 503 kts | 23° |
| 2026-05-04 14:55 | 44.67369 | 6.70144 | 40112 ft | 502 kts | 23° |
| 2026-05-04 14:55 | 44.73626 | 6.74523 | 40111 ft | 501 kts | 23° |
| 2026-05-04 14:56 | 44.80049 | 6.77932 | 40141 ft | 490 kts | 8° |
| 2026-05-04 14:56 | 44.86763 | 6.78770 | 40120 ft | 479 kts | 353° |
| 2026-05-04 14:57 | 44.93391 | 6.78263 | 40131 ft | 478 kts | 351° |
| 2026-05-04 14:57 | 45.00035 | 6.77714 | 40135 ft | 479 kts | 352° |
| 2026-05-04 14:58 | 45.06686 | 6.77244 | 40139 ft | 480 kts | 352° |
| 2026-05-04 14:58 | 45.13393 | 6.76805 | 40137 ft | 481 kts | 352° |
| 2026-05-04 14:59 | 45.20064 | 6.76367 | 40133 ft | 483 kts | 352° |
| 2026-05-04 15:00 | 45.30150 | 6.75697 | 40117 ft | 482 kts | 352° |
| 2026-05-04 15:00 | 45.36859 | 6.75258 | 40120 ft | 483 kts | 353° |
| 2026-05-04 15:01 | 45.46902 | 6.74624 | 40086 ft | 483 kts | 352° |
| 2026-05-04 15:01 | 45.53638 | 6.74171 | 40101 ft | 483 kts | 352° |
| 2026-05-04 15:02 | 45.60350 | 6.73711 | 40098 ft | 482 kts | 352° |
| 2026-05-04 15:02 | 45.67013 | 6.73255 | 40110 ft | 483 kts | 353° |
| 2026-05-04 15:03 | 45.73756 | 6.72795 | 40073 ft | 484 kts | 353° |
| 2026-05-04 15:03 | 45.80474 | 6.72337 | 40078 ft | 482 kts | 353° |
| 2026-05-04 15:04 | 45.87168 | 6.71875 | 40067 ft | 482 kts | 353° |
| 2026-05-04 15:04 | 45.93878 | 6.71407 | 40065 ft | 483 kts | 353° |
| 2026-05-04 15:05 | 46.00579 | 6.70940 | 40055 ft | 483 kts | 353° |
| 2026-05-04 15:05 | 46.07310 | 6.70470 | 40055 ft | 484 kts | 353° |
| 2026-05-04 15:06 | 46.14044 | 6.70713 | 40047 ft | 490 kts | 6° |
| 2026-05-04 15:07 | 46.23960 | 6.74747 | 40046 ft | 494 kts | 14° |
| 2026-05-04 15:07 | 46.30521 | 6.77646 | 40040 ft | 494 kts | 13° |
| 2026-05-04 15:08 | 46.37105 | 6.80454 | 40046 ft | 494 kts | 13° |
| 2026-05-04 15:08 | 46.43726 | 6.83255 | 40034 ft | 494 kts | 13° |
| 2026-05-04 15:09 | 46.50317 | 6.86061 | 40045 ft | 494 kts | 14° |
| 2026-05-04 15:09 | 46.53538 | 6.87941 | 40032 ft | 499 kts | 26° |
| 2026-05-04 15:09 | 46.56463 | 6.90615 | 40054 ft | 501 kts | 36° |
| 2026-05-04 15:10 | 46.61307 | 6.97842 | 40069 ft | 502 kts | 51° |
| 2026-05-04 15:10 | 46.63488 | 7.01876 | 40055 ft | 503 kts | 51° |
| 2026-05-04 15:11 | 46.69940 | 7.13852 | 40055 ft | 502 kts | 51° |
| 2026-05-04 15:11 | 46.74339 | 7.21836 | 40045 ft | 503 kts | 50° |
| 2026-05-04 15:12 | 46.78721 | 7.29775 | 40023 ft | 503 kts | 51° |
| 2026-05-04 15:12 | 46.83076 | 7.37699 | 40030 ft | 503 kts | 51° |
| 2026-05-04 15:13 | 46.84553 | 7.40395 | 40023 ft | 503 kts | 51° |
| 2026-05-04 15:13 | 46.87982 | 7.46671 | 40008 ft | 500 kts | 51° |
| 2026-05-04 15:14 | 46.92288 | 7.54585 | 40017 ft | 498 kts | 51° |
| 2026-05-04 15:14 | 46.96598 | 7.62533 | 40020 ft | 497 kts | 51° |
| 2026-05-04 15:15 | 47.00882 | 7.70452 | 40024 ft | 496 kts | 51° |
| 2026-05-04 15:15 | 47.05187 | 7.78432 | 39993 ft | 497 kts | 51° |
| 2026-05-04 15:16 | 47.11568 | 7.90304 | 39982 ft | 495 kts | 51° |
| 2026-05-04 15:17 | 47.17413 | 8.02720 | 39977 ft | 493 kts | 59° |
| 2026-05-04 15:17 | 47.22758 | 8.15657 | 39988 ft | 492 kts | 58° |
| 2026-05-04 15:18 | 47.26370 | 8.24208 | 39982 ft | 492 kts | 58° |
| 2026-05-04 15:19 | 47.32779 | 8.35844 | 39969 ft | 491 kts | 38° |
| 2026-05-04 15:19 | 47.41312 | 8.44203 | 39968 ft | 490 kts | 31° |
| 2026-05-04 15:20 | 47.47060 | 8.49635 | 39967 ft | 491 kts | 32° |
| 2026-05-04 15:20 | 47.52786 | 8.55155 | 39967 ft | 492 kts | 32° |
| 2026-05-04 15:21 | 47.58477 | 8.60701 | 39966 ft | 492 kts | 32° |
| 2026-05-04 15:22 | 47.67072 | 8.69113 | 39968 ft | 493 kts | 32° |
| 2026-05-04 15:22 | 47.75637 | 8.77520 | 39960 ft | 493 kts | 32° |
| 2026-05-04 15:23 | 47.81366 | 8.83161 | 39959 ft | 494 kts | 32° |
| 2026-05-04 15:23 | 47.87088 | 8.88810 | 39957 ft | 494 kts | 32° |
| 2026-05-04 15:24 | 47.98541 | 9.00166 | 39954 ft | 494 kts | 32° |
| 2026-05-04 15:25 | 48.04255 | 9.05855 | 39954 ft | 494 kts | 32° |
| 2026-05-04 15:26 | 48.12843 | 9.14410 | 39958 ft | 493 kts | 30° |
| 2026-05-04 15:26 | 48.22371 | 9.19475 | 39954 ft | 485 kts | 4° |
| 2026-05-04 15:27 | 48.31047 | 9.20808 | 39954 ft | 485 kts | 3° |
| 2026-05-04 15:28 | 48.41109 | 9.22390 | 39961 ft | 485 kts | 4° |
| 2026-05-04 15:29 | 48.51010 | 9.24069 | 39966 ft | 485 kts | 4° |
| 2026-05-04 15:30 | 48.74519 | 9.27856 | 39973 ft | 485 kts | 3° |
| 2026-05-04 15:31 | 48.84616 | 9.29380 | 39963 ft | 485 kts | 3° |
| 2026-05-04 15:32 | 49.01386 | 9.31959 | 39961 ft | 485 kts | 3° |
| 2026-05-04 15:34 | 49.18169 | 9.34559 | 39968 ft | 485 kts | 3° |
| 2026-05-04 15:34 | 49.28269 | 9.36131 | 39984 ft | 485 kts | 3° |
| 2026-05-04 15:35 | 49.38313 | 9.37702 | 39980 ft | 486 kts | 3° |
| 2026-05-04 15:36 | 49.48406 | 9.39287 | 39980 ft | 486 kts | 3° |
| 2026-05-04 15:36 | 49.55172 | 9.40352 | 39980 ft | 486 kts | 3° |
| 2026-05-04 15:37 | 49.61879 | 9.41412 | 39981 ft | 486 kts | 3° |
| 2026-05-04 15:37 | 49.68604 | 9.42480 | 39978 ft | 486 kts | 3° |
| 2026-05-04 15:38 | 49.75314 | 9.43551 | 39979 ft | 486 kts | 3° |
| 2026-05-04 15:38 | 49.82014 | 9.44624 | 39991 ft | 485 kts | 3° |
| 2026-05-04 15:39 | 49.88769 | 9.45708 | 39977 ft | 486 kts | 3° |
| 2026-05-04 15:40 | 49.98834 | 9.47329 | 39970 ft | 482 kts | 3° |
| 2026-05-04 15:40 | 50.05420 | 9.48394 | 39949 ft | 469 kts | 3° |
| 2026-05-04 15:41 | 50.11831 | 9.49439 | 39964 ft | 457 kts | 3° |
| 2026-05-04 15:41 | 50.18144 | 9.50468 | 39536 ft | 462 kts | 3° |
| 2026-05-04 15:41 | 50.21315 | 9.50986 | 39067 ft | 461 kts | 3° |
| 2026-05-04 15:42 | 50.24512 | 9.51511 | 38521 ft | 461 kts | 3° |
| 2026-05-04 15:42 | 50.27738 | 9.52041 | 37843 ft | 462 kts | 2° |
| 2026-05-04 15:42 | 50.30896 | 9.52561 | 37292 ft | 460 kts | 2° |
| 2026-05-04 15:42 | 50.34054 | 9.53082 | 36725 ft | 459 kts | 2° |
| 2026-05-04 15:43 | 50.37237 | 9.53607 | 36158 ft | 458 kts | 2° |
| 2026-05-04 15:43 | 50.40432 | 9.54134 | 35597 ft | 458 kts | 2° |
| 2026-05-04 15:43 | 50.43570 | 9.54653 | 35014 ft | 459 kts | 2° |
| 2026-05-04 15:43 | 50.46769 | 9.55182 | 34375 ft | 461 kts | 2° |
| 2026-05-04 15:44 | 50.49950 | 9.55709 | 33713 ft | 462 kts | 2° |
| 2026-05-04 15:44 | 50.53131 | 9.56236 | 32982 ft | 463 kts | 2° |
| 2026-05-04 15:44 | 50.56364 | 9.56759 | 32271 ft | 464 kts | 1° |
| 2026-05-04 15:44 | 50.59562 | 9.56996 | 31572 ft | 461 kts | 354° |
| 2026-05-04 15:45 | 50.62675 | 9.56481 | 31067 ft | 453 kts | 346° |
| 2026-05-04 15:45 | 50.65778 | 9.55629 | 30572 ft | 448 kts | 345° |
| 2026-05-04 15:45 | 50.68848 | 9.54744 | 30085 ft | 446 kts | 345° |
| 2026-05-04 15:45 | 50.71860 | 9.53886 | 29529 ft | 443 kts | 346° |
| 2026-05-04 15:46 | 50.74893 | 9.53047 | 28983 ft | 439 kts | 346° |
| 2026-05-04 15:46 | 50.77862 | 9.52246 | 28500 ft | 434 kts | 346° |
| 2026-05-04 15:46 | 50.80853 | 9.51449 | 27998 ft | 431 kts | 346° |
| 2026-05-04 15:46 | 50.83797 | 9.50665 | 27496 ft | 427 kts | 346° |
| 2026-05-04 15:47 | 50.86702 | 9.49890 | 27004 ft | 424 kts | 346° |
| 2026-05-04 15:47 | 50.89565 | 9.48912 | 26479 ft | 416 kts | 335° |
| 2026-05-04 15:47 | 50.92031 | 9.46727 | 26057 ft | 400 kts | 316° |
| 2026-05-04 15:47 | 50.93960 | 9.43628 | 25562 ft | 390 kts | 301° |
| 2026-05-04 15:48 | 50.95262 | 9.39989 | 25087 ft | 380 kts | 289° |
| 2026-05-04 15:48 | 50.96287 | 9.36120 | 24627 ft | 377 kts | 287° |
| 2026-05-04 15:48 | 50.98206 | 9.28425 | 23670 ft | 374 kts | 287° |
| 2026-05-04 15:49 | 50.99164 | 9.24617 | 23138 ft | 373 kts | 288° |
| 2026-05-04 15:49 | 51.00139 | 9.20785 | 22625 ft | 371 kts | 288° |
| 2026-05-04 15:49 | 51.01102 | 9.17030 | 22141 ft | 369 kts | 288° |
| 2026-05-04 15:49 | 51.02076 | 9.13247 | 21684 ft | 366 kts | 288° |
| 2026-05-04 15:50 | 51.03027 | 9.09552 | 21208 ft | 363 kts | 289° |
| 2026-05-04 15:50 | 51.03984 | 9.05831 | 20760 ft | 361 kts | 289° |
| 2026-05-04 15:50 | 51.04937 | 9.02122 | 20301 ft | 359 kts | 289° |
| 2026-05-04 15:50 | 51.05868 | 8.98486 | 19862 ft | 358 kts | 289° |
| 2026-05-04 15:51 | 51.06810 | 8.94810 | 19404 ft | 356 kts | 289° |
| 2026-05-04 15:51 | 51.07743 | 8.91181 | 18962 ft | 356 kts | 289° |
| 2026-05-04 15:51 | 51.08673 | 8.87571 | 18504 ft | 355 kts | 290° |
| 2026-05-04 15:51 | 51.09617 | 8.83894 | 18031 ft | 354 kts | 290° |
| 2026-05-04 15:52 | 51.10539 | 8.80298 | 17546 ft | 353 kts | 290° |
| 2026-05-04 15:52 | 51.11537 | 8.76703 | 17077 ft | 352 kts | 295° |
| 2026-05-04 15:52 | 51.12707 | 8.73311 | 16651 ft | 350 kts | 297° |
| 2026-05-04 15:52 | 51.13923 | 8.70009 | 16232 ft | 347 kts | 298° |
| 2026-05-04 15:53 | 51.15141 | 8.66685 | 15794 ft | 345 kts | 297° |
| 2026-05-04 15:53 | 51.16339 | 8.63351 | 15371 ft | 343 kts | 297° |
| 2026-05-04 15:53 | 51.17500 | 8.60079 | 14931 ft | 341 kts | 297° |
| 2026-05-04 15:53 | 51.18785 | 8.56882 | 14499 ft | 342 kts | 310° |
| 2026-05-04 15:54 | 51.20665 | 8.54606 | 14092 ft | 345 kts | 333° |
| 2026-05-04 15:54 | 51.22985 | 8.53623 | 13774 ft | 343 kts | 355° |
| 2026-05-04 15:54 | 51.25337 | 8.53905 | 13353 ft | 342 kts | 8° |
| 2026-05-04 15:54 | 51.27696 | 8.54548 | 12892 ft | 341 kts | 9° |
| 2026-05-04 15:55 | 51.30007 | 8.55224 | 12448 ft | 340 kts | 9° |
| 2026-05-04 15:55 | 51.32317 | 8.55886 | 12022 ft | 339 kts | 9° |
| 2026-05-04 15:55 | 51.34659 | 8.56530 | 11592 ft | 337 kts | 9° |
| 2026-05-04 15:55 | 51.36957 | 8.57145 | 11179 ft | 336 kts | 8° |
| 2026-05-04 15:56 | 51.39270 | 8.57759 | 10763 ft | 334 kts | 8° |
| 2026-05-04 15:56 | 51.41502 | 8.58569 | 10505 ft | 328 kts | 22° |
| 2026-05-04 15:56 | 51.43362 | 8.60502 | 10355 ft | 317 kts | 46° |
| 2026-05-04 15:56 | 51.44633 | 8.63319 | 10230 ft | 306 kts | 65° |
| 2026-05-04 15:57 | 51.45266 | 8.66474 | 10119 ft | 294 kts | 79° |
| 2026-05-04 15:57 | 51.45665 | 8.69649 | 9982 ft | 286 kts | 81° |
| 2026-05-04 15:57 | 51.46026 | 8.72786 | 9710 ft | 284 kts | 82° |
| 2026-05-04 15:57 | 51.46377 | 8.75863 | 9415 ft | 282 kts | 81° |
| 2026-05-04 15:58 | 51.46738 | 8.78968 | 9118 ft | 280 kts | 81° |
| 2026-05-04 15:58 | 51.47096 | 8.81996 | 8832 ft | 279 kts | 81° |
| 2026-05-04 15:58 | 51.47460 | 8.85059 | 8540 ft | 278 kts | 81° |
| 2026-05-04 15:58 | 51.47826 | 8.88114 | 8251 ft | 277 kts | 81° |
| 2026-05-04 15:59 | 51.48186 | 8.91105 | 7961 ft | 276 kts | 80° |
| 2026-05-04 15:59 | 51.48553 | 8.94160 | 7671 ft | 276 kts | 81° |
| 2026-05-04 15:59 | 51.48910 | 8.97147 | 7386 ft | 275 kts | 81° |
| 2026-05-04 15:59 | 51.49274 | 9.00192 | 7096 ft | 275 kts | 80° |
| 2026-05-04 16:00 | 51.49898 | 9.03062 | 6790 ft | 276 kts | 57° |
| 2026-05-04 16:00 | 51.51277 | 9.05139 | 6505 ft | 275 kts | 27° |
| 2026-05-04 16:00 | 51.53106 | 9.05916 | 6227 ft | 270 kts | 358° |
| 2026-05-04 16:00 | 51.54891 | 9.05293 | 5937 ft | 264 kts | 333° |
| 2026-05-04 16:01 | 51.56404 | 9.03666 | 5663 ft | 258 kts | 317° |
| 2026-05-04 16:01 | 51.57724 | 9.01786 | 5386 ft | 255 kts | 315° |
| 2026-05-04 16:01 | 51.59042 | 8.99867 | 5141 ft | 253 kts | 315° |
| 2026-05-04 16:01 | 51.60331 | 8.98015 | 5023 ft | 246 kts | 316° |
| 2026-05-04 16:02 | 51.61624 | 8.96183 | 4658 ft | 252 kts | 316° |
| 2026-05-04 16:02 | 51.62958 | 8.94346 | 4392 ft | 250 kts | 317° |
| 2026-05-04 16:02 | 51.65529 | 8.90826 | 4008 ft | 231 kts | 317° |
| 2026-05-04 16:03 | 51.66720 | 8.89198 | 3858 ft | 217 kts | 317° |
| 2026-05-04 16:03 | 51.67709 | 8.87549 | 3760 ft | 195 kts | 295° |
| 2026-05-04 16:03 | 51.67941 | 8.85565 | 3632 ft | 171 kts | 261° |
| 2026-05-04 16:03 | 51.67663 | 8.83773 | 3434 ft | 159 kts | 265° |
| 2026-05-04 16:04 | 51.68080 | 8.82256 | 3297 ft | 157 kts | 317° |
| 2026-05-04 16:04 | 51.68610 | 8.79610 | 3107 ft | 129 kts | 235° |
| 2026-05-04 16:04 | 51.68148 | 8.78359 | 2925 ft | 128 kts | 245° |
| 2026-05-04 16:05 | 51.67715 | 8.77126 | 2766 ft | 128 kts | 238° |
| 2026-05-04 16:05 | 51.67218 | 8.75892 | 2589 ft | 131 kts | 238° |
| 2026-05-04 16:05 | 51.66229 | 8.73466 | 2228 ft | 126 kts | 238° |
| 2026-05-04 16:06 | 51.65741 | 8.72266 | 2066 ft | 129 kts | 238° |
| 2026-05-04 16:06 | 51.64424 | 8.69036 | 1608 ft | 130 kts | 237° |
| 2026-05-04 16:07 | 51.63757 | 8.67399 | 1357 ft | 132 kts | 238° |
| 2026-05-04 16:07 | 51.62249 | 8.63695 | 815 ft | 130 kts | 238° |
| 2026-05-04 16:08 | 51.61762 | 8.62499 | 694 ft | 122 kts | 237° |
| 2026-05-04 16:08 | 51.61129 | 8.61068 | 714 ft | 14 kts | 204° |
| 2026-05-04 16:09 | 51.61004 | 8.61064 | 717 ft | 9 kts | 112° |
| 2026-05-04 16:09 | 51.60969 | 8.61255 | 728 ft | 10 kts | 102° |
| 2026-05-04 16:10 | 51.61015 | 8.61510 | 730 ft | 13 kts | 57° |
| 2026-05-04 16:11 | 51.61143 | 8.61823 | 730 ft | 7 kts | 57° |
| 2026-05-04 16:11 | 51.61161 | 8.61872 | 730 ft | 3 kts | 72° |
| 2026-05-04 16:12 | 51.61126 | 8.61921 | 730 ft | 1 kts | 148° |
| 2026-05-04 16:12 | 51.61118 | 8.61930 | 730 ft | 0 kts | 148° |